NOK8506 VTBD-VTCL
Flight info
| Callsign | NOK8506 |
|---|---|
| Flight time | 1h 2m |
| Altitude | 24000 |
| Route | OLVUK3A OLVUK Y26 BEBUV Y33 IBIRI IBIRI1A |
| Aircraft | DH8D/M-SDE2E3FGRY/H |
Departure
| Time | 2026-05-08 08:23 |
|---|---|
| Airport | Don Mueang International Airport (VTBD) |
Arrival
| Time | 2026-05-08 09:25 |
|---|---|
| Airport | Lampang Airport (VTCL) |
| Time | Latitude | Longitude | Altitude | Speed | Heading |
|---|---|---|---|---|---|
| 2026-05-08 07:58 | 13.90967 | 100.59834 | 17 ft | 0 kts | 28° |
| 2026-05-08 08:11 | 13.90959 | 100.59830 | 17 ft | 2 kts | 28° |
| 2026-05-08 08:11 | 13.90946 | 100.59822 | 17 ft | 2 kts | 28° |
| 2026-05-08 08:11 | 13.90934 | 100.59814 | 17 ft | 2 kts | 63° |
| 2026-05-08 08:12 | 13.90933 | 100.59799 | 17 ft | 2 kts | 115° |
| 2026-05-08 08:12 | 13.90941 | 100.59786 | 17 ft | 2 kts | 119° |
| 2026-05-08 08:12 | 13.90947 | 100.59775 | 17 ft | 0 kts | 118° |
| 2026-05-08 08:14 | 13.90946 | 100.59775 | 17 ft | 0 kts | 118° |
| 2026-05-08 08:14 | 13.90941 | 100.59785 | 17 ft | 2 kts | 121° |
| 2026-05-08 08:15 | 13.90928 | 100.59809 | 17 ft | 4 kts | 118° |
| 2026-05-08 08:15 | 13.90908 | 100.59847 | 17 ft | 7 kts | 119° |
| 2026-05-08 08:15 | 13.90885 | 100.59901 | 17 ft | 9 kts | 95° |
| 2026-05-08 08:15 | 13.90914 | 100.59971 | 17 ft | 12 kts | 41° |
| 2026-05-08 08:16 | 13.90992 | 100.60027 | 17 ft | 14 kts | 38° |
| 2026-05-08 08:16 | 13.91078 | 100.60092 | 17 ft | 13 kts | 32° |
| 2026-05-08 08:16 | 13.91172 | 100.60145 | 17 ft | 16 kts | 28° |
| 2026-05-08 08:16 | 13.91278 | 100.60204 | 17 ft | 18 kts | 28° |
| 2026-05-08 08:17 | 13.91389 | 100.60266 | 17 ft | 14 kts | 28° |
| 2026-05-08 08:17 | 13.91412 | 100.60358 | 17 ft | 14 kts | 59° |
| 2026-05-08 08:17 | 13.91505 | 100.60417 | 17 ft | 16 kts | 28° |
| 2026-05-08 08:17 | 13.91616 | 100.60479 | 17 ft | 18 kts | 29° |
| 2026-05-08 08:18 | 13.91732 | 100.60544 | 17 ft | 19 kts | 28° |
| 2026-05-08 08:18 | 13.91858 | 100.60615 | 17 ft | 20 kts | 30° |
| 2026-05-08 08:18 | 13.91988 | 100.60687 | 17 ft | 21 kts | 29° |
| 2026-05-08 08:18 | 13.92115 | 100.60759 | 17 ft | 17 kts | 28° |
| 2026-05-08 08:19 | 13.92230 | 100.60823 | 17 ft | 19 kts | 29° |
| 2026-05-08 08:19 | 13.92316 | 100.60882 | 17 ft | 10 kts | 72° |
| 2026-05-08 08:19 | 13.92299 | 100.60932 | 17 ft | 0 kts | 118° |
| 2026-05-08 08:21 | 13.92290 | 100.60950 | 17 ft | 5 kts | 119° |
| 2026-05-08 08:21 | 13.92263 | 100.60999 | 17 ft | 9 kts | 119° |
| 2026-05-08 08:21 | 13.92209 | 100.61001 | 17 ft | 10 kts | 208° |
| 2026-05-08 08:21 | 13.92125 | 100.60954 | 17 ft | 16 kts | 208° |
| 2026-05-08 08:22 | 13.92112 | 100.60947 | 17 ft | 0 kts | 208° |
| 2026-05-08 08:22 | 13.92040 | 100.60907 | 17 ft | 41 kts | 210° |
| 2026-05-08 08:22 | 13.91518 | 100.60612 | 17 ft | 123 kts | 207° |
| 2026-05-08 08:22 | 13.90635 | 100.60101 | 103 ft | 160 kts | 207° |
| 2026-05-08 08:23 | 13.89630 | 100.59526 | 595 ft | 167 kts | 208° |
| 2026-05-08 08:23 | 13.88558 | 100.58903 | 1028 ft | 184 kts | 207° |
| 2026-05-08 08:23 | 13.87405 | 100.58250 | 1610 ft | 191 kts | 208° |
| 2026-05-08 08:23 | 13.86400 | 100.57367 | 2180 ft | 196 kts | 242° |
| 2026-05-08 08:24 | 13.86324 | 100.56006 | 2703 ft | 200 kts | 289° |
| 2026-05-08 08:24 | 13.86911 | 100.54658 | 3141 ft | 212 kts | 296° |
| 2026-05-08 08:24 | 13.87577 | 100.53259 | 3549 ft | 226 kts | 297° |
| 2026-05-08 08:24 | 13.88283 | 100.51778 | 3906 ft | 234 kts | 296° |
| 2026-05-08 08:25 | 13.89024 | 100.50221 | 4233 ft | 243 kts | 296° |
| 2026-05-08 08:25 | 13.89777 | 100.48639 | 4551 ft | 250 kts | 297° |
| 2026-05-08 08:25 | 13.90562 | 100.46989 | 4871 ft | 256 kts | 296° |
| 2026-05-08 08:25 | 13.91363 | 100.45304 | 5191 ft | 262 kts | 297° |
| 2026-05-08 08:26 | 13.92174 | 100.43600 | 5508 ft | 267 kts | 297° |
| 2026-05-08 08:26 | 13.92999 | 100.41866 | 5868 ft | 269 kts | 297° |
| 2026-05-08 08:26 | 13.93816 | 100.40145 | 6245 ft | 270 kts | 297° |
| 2026-05-08 08:26 | 13.94649 | 100.38396 | 6623 ft | 271 kts | 297° |
| 2026-05-08 08:27 | 13.95478 | 100.36651 | 6998 ft | 272 kts | 297° |
| 2026-05-08 08:27 | 13.96307 | 100.34919 | 7371 ft | 272 kts | 298° |
| 2026-05-08 08:27 | 13.97502 | 100.33432 | 7719 ft | 269 kts | 328° |
| 2026-05-08 08:27 | 13.99251 | 100.32842 | 8105 ft | 263 kts | 353° |
| 2026-05-08 08:28 | 14.01061 | 100.32599 | 8488 ft | 263 kts | 354° |
| 2026-05-08 08:28 | 14.02878 | 100.32372 | 8863 ft | 264 kts | 355° |
| 2026-05-08 08:28 | 14.04718 | 100.32149 | 9241 ft | 264 kts | 355° |
| 2026-05-08 08:28 | 14.06557 | 100.31929 | 9621 ft | 264 kts | 355° |
| 2026-05-08 08:29 | 14.08370 | 100.31693 | 10141 ft | 258 kts | 354° |
| 2026-05-08 08:29 | 14.10206 | 100.31453 | 10234 ft | 270 kts | 355° |
| 2026-05-08 08:29 | 14.12064 | 100.31240 | 10698 ft | 264 kts | 355° |
| 2026-05-08 08:29 | 14.13899 | 100.31020 | 11112 ft | 264 kts | 355° |
| 2026-05-08 08:30 | 14.15728 | 100.30816 | 11360 ft | 269 kts | 356° |
| 2026-05-08 08:30 | 14.17613 | 100.30604 | 11605 ft | 273 kts | 355° |
| 2026-05-08 08:30 | 14.21497 | 100.30160 | 12092 ft | 280 kts | 356° |
| 2026-05-08 08:31 | 14.23468 | 100.29933 | 12331 ft | 283 kts | 355° |
| 2026-05-08 08:31 | 14.25430 | 100.29706 | 12569 ft | 286 kts | 355° |
| 2026-05-08 08:31 | 14.27423 | 100.29475 | 12807 ft | 288 kts | 355° |
| 2026-05-08 08:31 | 14.29452 | 100.29238 | 13046 ft | 290 kts | 355° |
| 2026-05-08 08:32 | 14.31462 | 100.29004 | 13276 ft | 291 kts | 355° |
| 2026-05-08 08:32 | 14.33495 | 100.28766 | 13518 ft | 292 kts | 355° |
| 2026-05-08 08:32 | 14.35534 | 100.28528 | 13756 ft | 293 kts | 355° |
| 2026-05-08 08:32 | 14.37553 | 100.28292 | 13984 ft | 294 kts | 355° |
| 2026-05-08 08:33 | 14.39609 | 100.28051 | 14223 ft | 295 kts | 355° |
| 2026-05-08 08:33 | 14.41653 | 100.27812 | 14462 ft | 295 kts | 355° |
| 2026-05-08 08:33 | 14.43703 | 100.27572 | 14695 ft | 295 kts | 355° |
| 2026-05-08 08:33 | 14.45768 | 100.27330 | 14930 ft | 295 kts | 355° |
| 2026-05-08 08:34 | 14.47790 | 100.26979 | 15160 ft | 296 kts | 347° |
| 2026-05-08 08:34 | 14.49788 | 100.26356 | 15395 ft | 297 kts | 344° |
| 2026-05-08 08:34 | 14.51741 | 100.25716 | 15623 ft | 297 kts | 344° |
| 2026-05-08 08:34 | 14.53727 | 100.25066 | 15859 ft | 297 kts | 343° |
| 2026-05-08 08:35 | 14.55695 | 100.24425 | 16087 ft | 297 kts | 344° |
| 2026-05-08 08:35 | 14.57667 | 100.23783 | 16321 ft | 297 kts | 344° |
| 2026-05-08 08:35 | 14.59640 | 100.23142 | 16555 ft | 296 kts | 343° |
| 2026-05-08 08:35 | 14.61612 | 100.22502 | 16789 ft | 296 kts | 343° |
| 2026-05-08 08:36 | 14.63580 | 100.21865 | 17021 ft | 295 kts | 344° |
| 2026-05-08 08:36 | 14.65547 | 100.21228 | 17252 ft | 294 kts | 343° |
| 2026-05-08 08:36 | 14.67524 | 100.20581 | 17479 ft | 293 kts | 343° |
| 2026-05-08 08:36 | 14.69469 | 100.19933 | 17708 ft | 292 kts | 343° |
| 2026-05-08 08:37 | 14.71396 | 100.19289 | 17939 ft | 292 kts | 343° |
| 2026-05-08 08:37 | 14.73336 | 100.18642 | 18128 ft | 292 kts | 343° |
| 2026-05-08 08:37 | 14.75270 | 100.17998 | 18311 ft | 292 kts | 343° |
| 2026-05-08 08:37 | 14.77216 | 100.17349 | 18505 ft | 292 kts | 343° |
| 2026-05-08 08:38 | 14.79176 | 100.16697 | 18685 ft | 292 kts | 343° |
| 2026-05-08 08:38 | 14.81095 | 100.16059 | 18864 ft | 292 kts | 343° |
| 2026-05-08 08:38 | 14.83055 | 100.15417 | 19051 ft | 291 kts | 343° |
| 2026-05-08 08:38 | 14.84978 | 100.14781 | 19239 ft | 291 kts | 343° |
| 2026-05-08 08:39 | 14.86923 | 100.14130 | 19432 ft | 291 kts | 343° |
| 2026-05-08 08:39 | 14.88836 | 100.13490 | 19613 ft | 290 kts | 343° |
| 2026-05-08 08:39 | 14.90754 | 100.12848 | 19803 ft | 289 kts | 343° |
| 2026-05-08 08:39 | 14.92687 | 100.12202 | 19987 ft | 287 kts | 343° |
| 2026-05-08 08:40 | 14.94589 | 100.11566 | 20167 ft | 285 kts | 343° |
| 2026-05-08 08:40 | 14.96466 | 100.10940 | 20350 ft | 283 kts | 343° |
| 2026-05-08 08:40 | 14.98340 | 100.10314 | 20538 ft | 281 kts | 343° |
| 2026-05-08 08:40 | 15.00192 | 100.09696 | 20719 ft | 279 kts | 343° |
| 2026-05-08 08:41 | 15.02041 | 100.09079 | 20895 ft | 277 kts | 343° |
| 2026-05-08 08:41 | 15.03871 | 100.08469 | 21069 ft | 274 kts | 343° |
| 2026-05-08 08:41 | 15.05690 | 100.07864 | 21252 ft | 271 kts | 343° |
| 2026-05-08 08:41 | 15.07478 | 100.07269 | 21434 ft | 268 kts | 343° |
| 2026-05-08 08:42 | 15.09255 | 100.06676 | 21613 ft | 264 kts | 343° |
| 2026-05-08 08:42 | 15.11005 | 100.06093 | 21795 ft | 260 kts | 343° |
| 2026-05-08 08:42 | 15.12718 | 100.05522 | 21967 ft | 256 kts | 343° |
| 2026-05-08 08:42 | 15.14406 | 100.04960 | 22140 ft | 251 kts | 343° |
| 2026-05-08 08:43 | 15.16060 | 100.04409 | 22284 ft | 248 kts | 343° |
| 2026-05-08 08:43 | 15.17708 | 100.03861 | 22399 ft | 245 kts | 343° |
| 2026-05-08 08:43 | 15.19326 | 100.03321 | 22510 ft | 242 kts | 343° |
| 2026-05-08 08:43 | 15.20919 | 100.02791 | 22622 ft | 239 kts | 343° |
| 2026-05-08 08:44 | 15.22503 | 100.02264 | 22730 ft | 235 kts | 343° |
| 2026-05-08 08:44 | 15.24058 | 100.01746 | 22838 ft | 231 kts | 343° |
| 2026-05-08 08:44 | 15.25568 | 100.01244 | 22939 ft | 227 kts | 343° |
| 2026-05-08 08:44 | 15.27085 | 100.00746 | 23071 ft | 234 kts | 344° |
| 2026-05-08 08:45 | 15.28714 | 100.00214 | 23242 ft | 252 kts | 344° |
| 2026-05-08 08:45 | 15.30462 | 99.99636 | 23402 ft | 271 kts | 344° |
| 2026-05-08 08:45 | 15.32315 | 99.99019 | 23556 ft | 289 kts | 343° |
| 2026-05-08 08:45 | 15.34296 | 99.98357 | 23695 ft | 306 kts | 343° |
| 2026-05-08 08:46 | 15.36345 | 99.97666 | 23713 ft | 307 kts | 343° |
| 2026-05-08 08:46 | 15.38387 | 99.96973 | 23717 ft | 307 kts | 343° |
| 2026-05-08 08:46 | 15.40430 | 99.96284 | 23717 ft | 308 kts | 343° |
| 2026-05-08 08:46 | 15.42505 | 99.95585 | 23718 ft | 308 kts | 343° |
| 2026-05-08 08:47 | 15.44537 | 99.94903 | 23722 ft | 309 kts | 343° |
| 2026-05-08 08:47 | 15.46626 | 99.94201 | 23724 ft | 309 kts | 343° |
| 2026-05-08 08:47 | 15.48680 | 99.93511 | 23726 ft | 309 kts | 343° |
| 2026-05-08 08:47 | 15.50742 | 99.92820 | 23736 ft | 309 kts | 343° |
| 2026-05-08 08:48 | 15.52784 | 99.92136 | 23734 ft | 309 kts | 343° |
| 2026-05-08 08:48 | 15.54853 | 99.91442 | 23736 ft | 308 kts | 343° |
| 2026-05-08 08:48 | 15.56914 | 99.90752 | 23728 ft | 309 kts | 343° |
| 2026-05-08 08:48 | 15.58963 | 99.90066 | 23726 ft | 309 kts | 343° |
| 2026-05-08 08:49 | 15.61024 | 99.89375 | 23731 ft | 309 kts | 343° |
| 2026-05-08 08:49 | 15.63089 | 99.88683 | 23735 ft | 309 kts | 343° |
| 2026-05-08 08:49 | 15.65152 | 99.87991 | 23740 ft | 309 kts | 343° |
| 2026-05-08 08:49 | 15.67207 | 99.87303 | 23749 ft | 309 kts | 343° |
| 2026-05-08 08:50 | 15.69239 | 99.86621 | 23751 ft | 309 kts | 343° |
| 2026-05-08 08:50 | 15.71300 | 99.85930 | 23750 ft | 309 kts | 343° |
| 2026-05-08 08:50 | 15.73362 | 99.85237 | 23747 ft | 309 kts | 343° |
| 2026-05-08 08:50 | 15.75421 | 99.84547 | 23748 ft | 309 kts | 343° |
| 2026-05-08 08:51 | 15.77463 | 99.83862 | 23754 ft | 308 kts | 343° |
| 2026-05-08 08:51 | 15.79522 | 99.83171 | 23754 ft | 308 kts | 343° |
| 2026-05-08 08:51 | 15.81580 | 99.82479 | 23750 ft | 308 kts | 343° |
| 2026-05-08 08:51 | 15.83623 | 99.81793 | 23754 ft | 307 kts | 343° |
| 2026-05-08 08:52 | 15.85666 | 99.81107 | 23751 ft | 307 kts | 343° |
| 2026-05-08 08:52 | 15.87694 | 99.80426 | 23753 ft | 307 kts | 343° |
| 2026-05-08 08:52 | 15.89755 | 99.79734 | 23755 ft | 307 kts | 343° |
| 2026-05-08 08:52 | 15.91787 | 99.79050 | 23757 ft | 307 kts | 343° |
| 2026-05-08 08:53 | 15.93822 | 99.78368 | 23754 ft | 307 kts | 343° |
| 2026-05-08 08:53 | 15.95871 | 99.77678 | 23740 ft | 307 kts | 343° |
| 2026-05-08 08:53 | 15.97932 | 99.76986 | 23735 ft | 308 kts | 343° |
| 2026-05-08 08:53 | 15.99953 | 99.76306 | 23735 ft | 307 kts | 343° |
| 2026-05-08 08:54 | 16.01996 | 99.75619 | 23750 ft | 307 kts | 343° |
| 2026-05-08 08:54 | 16.04051 | 99.74927 | 23741 ft | 307 kts | 343° |
| 2026-05-08 08:54 | 16.06069 | 99.74248 | 23751 ft | 306 kts | 343° |
| 2026-05-08 08:54 | 16.08100 | 99.73564 | 23736 ft | 306 kts | 343° |
| 2026-05-08 08:55 | 16.10151 | 99.72874 | 23741 ft | 306 kts | 343° |
| 2026-05-08 08:55 | 16.12169 | 99.72194 | 23757 ft | 305 kts | 343° |
| 2026-05-08 08:55 | 16.14185 | 99.71515 | 23753 ft | 305 kts | 343° |
| 2026-05-08 08:55 | 16.16229 | 99.70826 | 23743 ft | 305 kts | 343° |
| 2026-05-08 08:56 | 16.18266 | 99.70140 | 23748 ft | 305 kts | 343° |
| 2026-05-08 08:56 | 16.20301 | 99.69454 | 23741 ft | 305 kts | 343° |
| 2026-05-08 08:56 | 16.22314 | 99.68775 | 23746 ft | 304 kts | 343° |
| 2026-05-08 08:56 | 16.24347 | 99.68090 | 23741 ft | 304 kts | 343° |
| 2026-05-08 08:57 | 16.26367 | 99.67409 | 23753 ft | 304 kts | 343° |
| 2026-05-08 08:57 | 16.28389 | 99.66727 | 23755 ft | 304 kts | 343° |
| 2026-05-08 08:57 | 16.30415 | 99.66043 | 23757 ft | 304 kts | 343° |
| 2026-05-08 08:57 | 16.32430 | 99.65363 | 23757 ft | 303 kts | 343° |
| 2026-05-08 08:58 | 16.34444 | 99.64683 | 23765 ft | 303 kts | 343° |
| 2026-05-08 08:58 | 16.36456 | 99.64004 | 23763 ft | 303 kts | 343° |
| 2026-05-08 08:58 | 16.38457 | 99.63329 | 23762 ft | 302 kts | 343° |
| 2026-05-08 08:58 | 16.40481 | 99.62646 | 23750 ft | 302 kts | 343° |
| 2026-05-08 08:59 | 16.42483 | 99.61970 | 23744 ft | 302 kts | 342° |
| 2026-05-08 08:59 | 16.44486 | 99.61294 | 23740 ft | 302 kts | 342° |
| 2026-05-08 08:59 | 16.46497 | 99.60615 | 23743 ft | 302 kts | 342° |
| 2026-05-08 08:59 | 16.48495 | 99.59940 | 23742 ft | 302 kts | 342° |
| 2026-05-08 09:00 | 16.50518 | 99.59257 | 23748 ft | 302 kts | 342° |
| 2026-05-08 09:00 | 16.52543 | 99.58574 | 23749 ft | 302 kts | 342° |
| 2026-05-08 09:00 | 16.54551 | 99.57895 | 23755 ft | 301 kts | 342° |
| 2026-05-08 09:00 | 16.56549 | 99.57220 | 23755 ft | 301 kts | 342° |
| 2026-05-08 09:01 | 16.58551 | 99.56543 | 23759 ft | 300 kts | 342° |
| 2026-05-08 09:01 | 16.60362 | 99.55930 | 23751 ft | 300 kts | 342° |
| 2026-05-08 09:01 | 16.60506 | 99.55881 | 23750 ft | 300 kts | 342° |
| 2026-05-08 09:02 | 16.60699 | 99.55817 | 23750 ft | 300 kts | 342° |
| 2026-05-08 09:02 | 16.62248 | 99.55295 | 23740 ft | 300 kts | 342° |
| 2026-05-08 09:02 | 16.64242 | 99.54621 | 23748 ft | 300 kts | 342° |
| 2026-05-08 09:02 | 16.66246 | 99.53943 | 23751 ft | 300 kts | 342° |
| 2026-05-08 09:03 | 16.68245 | 99.53265 | 23758 ft | 300 kts | 342° |
| 2026-05-08 09:03 | 16.70221 | 99.52596 | 23760 ft | 299 kts | 342° |
| 2026-05-08 09:03 | 16.72212 | 99.51922 | 23762 ft | 299 kts | 342° |
| 2026-05-08 09:03 | 16.74214 | 99.51244 | 23758 ft | 299 kts | 342° |
| 2026-05-08 09:04 | 16.76194 | 99.50572 | 23766 ft | 299 kts | 342° |
| 2026-05-08 09:04 | 16.78185 | 99.49899 | 23762 ft | 299 kts | 342° |
| 2026-05-08 09:04 | 16.80171 | 99.49225 | 23766 ft | 299 kts | 342° |
| 2026-05-08 09:04 | 16.82156 | 99.48552 | 23764 ft | 299 kts | 341° |
| 2026-05-08 09:05 | 16.84128 | 99.47884 | 23760 ft | 299 kts | 341° |
| 2026-05-08 09:05 | 16.86111 | 99.47212 | 23763 ft | 298 kts | 341° |
| 2026-05-08 09:05 | 16.88114 | 99.46532 | 23758 ft | 298 kts | 341° |
| 2026-05-08 09:05 | 16.90087 | 99.45862 | 23756 ft | 298 kts | 341° |
| 2026-05-08 09:06 | 16.92072 | 99.45189 | 23751 ft | 298 kts | 341° |
| 2026-05-08 09:06 | 16.94034 | 99.44524 | 23756 ft | 297 kts | 341° |
| 2026-05-08 09:06 | 16.96020 | 99.43849 | 23762 ft | 297 kts | 341° |
| 2026-05-08 09:06 | 16.97988 | 99.43181 | 23764 ft | 297 kts | 341° |
| 2026-05-08 09:07 | 16.99968 | 99.42508 | 23706 ft | 300 kts | 342° |
| 2026-05-08 09:07 | 17.01991 | 99.41821 | 23426 ft | 311 kts | 341° |
| 2026-05-08 09:07 | 17.04075 | 99.41113 | 23116 ft | 318 kts | 341° |
| 2026-05-08 09:07 | 17.06224 | 99.40382 | 22803 ft | 325 kts | 341° |
| 2026-05-08 09:08 | 17.08384 | 99.39647 | 22497 ft | 331 kts | 341° |
| 2026-05-08 09:08 | 17.10605 | 99.38891 | 22185 ft | 336 kts | 341° |
| 2026-05-08 09:08 | 17.12870 | 99.38120 | 21879 ft | 341 kts | 341° |
| 2026-05-08 09:08 | 17.15122 | 99.37354 | 21588 ft | 344 kts | 342° |
| 2026-05-08 09:09 | 17.17412 | 99.36575 | 21294 ft | 347 kts | 342° |
| 2026-05-08 09:09 | 17.19727 | 99.35786 | 21000 ft | 350 kts | 342° |
| 2026-05-08 09:09 | 17.22060 | 99.34992 | 20700 ft | 352 kts | 341° |
| 2026-05-08 09:09 | 17.24394 | 99.34197 | 20404 ft | 353 kts | 341° |
| 2026-05-08 09:10 | 17.26756 | 99.33392 | 20102 ft | 354 kts | 341° |
| 2026-05-08 09:10 | 17.29098 | 99.32594 | 19809 ft | 355 kts | 341° |
| 2026-05-08 09:10 | 17.31457 | 99.31790 | 19510 ft | 353 kts | 341° |
| 2026-05-08 09:10 | 17.33770 | 99.31001 | 19208 ft | 349 kts | 341° |
| 2026-05-08 09:11 | 17.36097 | 99.30206 | 18901 ft | 345 kts | 341° |
| 2026-05-08 09:11 | 17.38372 | 99.29429 | 18600 ft | 342 kts | 341° |
| 2026-05-08 09:11 | 17.40614 | 99.28664 | 18302 ft | 339 kts | 341° |
| 2026-05-08 09:11 | 17.42861 | 99.27897 | 18000 ft | 336 kts | 341° |
| 2026-05-08 09:12 | 17.45131 | 99.27308 | 17676 ft | 334 kts | 355° |
| 2026-05-08 09:12 | 17.47410 | 99.27601 | 17385 ft | 329 kts | 14° |
| 2026-05-08 09:12 | 17.49630 | 99.28211 | 17093 ft | 327 kts | 15° |
| 2026-05-08 09:12 | 17.51823 | 99.28828 | 16781 ft | 319 kts | 15° |
| 2026-05-08 09:13 | 17.53948 | 99.29425 | 16452 ft | 309 kts | 15° |
| 2026-05-08 09:13 | 17.55986 | 99.29998 | 16056 ft | 303 kts | 15° |
| 2026-05-08 09:13 | 17.58005 | 99.30566 | 15649 ft | 297 kts | 15° |
| 2026-05-08 09:13 | 17.59999 | 99.31126 | 15243 ft | 291 kts | 14° |
| 2026-05-08 09:14 | 17.61954 | 99.31676 | 14839 ft | 287 kts | 15° |
| 2026-05-08 09:14 | 17.63857 | 99.32210 | 14434 ft | 283 kts | 15° |
| 2026-05-08 09:14 | 17.65753 | 99.32743 | 14027 ft | 279 kts | 14° |
| 2026-05-08 09:14 | 17.67625 | 99.33269 | 13624 ft | 275 kts | 15° |
| 2026-05-08 09:15 | 17.69455 | 99.33784 | 13229 ft | 272 kts | 15° |
| 2026-05-08 09:15 | 17.71274 | 99.34294 | 12828 ft | 269 kts | 15° |
| 2026-05-08 09:15 | 17.73070 | 99.34799 | 12424 ft | 266 kts | 15° |
| 2026-05-08 09:15 | 17.74855 | 99.35300 | 12018 ft | 263 kts | 15° |
| 2026-05-08 09:16 | 17.76623 | 99.35798 | 11615 ft | 261 kts | 15° |
| 2026-05-08 09:16 | 17.78372 | 99.36289 | 11219 ft | 258 kts | 15° |
| 2026-05-08 09:16 | 17.80091 | 99.36773 | 10824 ft | 256 kts | 15° |
| 2026-05-08 09:16 | 17.81810 | 99.37256 | 10424 ft | 254 kts | 16° |
| 2026-05-08 09:17 | 17.83524 | 99.37738 | 10022 ft | 253 kts | 16° |
| 2026-05-08 09:17 | 17.85212 | 99.38213 | 9623 ft | 251 kts | 16° |
| 2026-05-08 09:17 | 17.86900 | 99.38691 | 9228 ft | 249 kts | 17° |
| 2026-05-08 09:17 | 17.88528 | 99.39284 | 8832 ft | 247 kts | 22° |
| 2026-05-08 09:18 | 17.90141 | 99.39962 | 8429 ft | 246 kts | 23° |
| 2026-05-08 09:18 | 17.91725 | 99.40632 | 8033 ft | 245 kts | 23° |
| 2026-05-08 09:18 | 17.93302 | 99.41298 | 7638 ft | 244 kts | 22° |
| 2026-05-08 09:18 | 17.94876 | 99.41961 | 7242 ft | 243 kts | 22° |
| 2026-05-08 09:19 | 17.96442 | 99.42621 | 6848 ft | 242 kts | 22° |
| 2026-05-08 09:19 | 17.97997 | 99.43275 | 6456 ft | 241 kts | 22° |
| 2026-05-08 09:19 | 17.99550 | 99.43927 | 6065 ft | 240 kts | 22° |
| 2026-05-08 09:19 | 18.01104 | 99.44580 | 5669 ft | 240 kts | 22° |
| 2026-05-08 09:20 | 18.02646 | 99.45268 | 5270 ft | 239 kts | 28° |
| 2026-05-08 09:20 | 18.04017 | 99.46225 | 4879 ft | 237 kts | 37° |
| 2026-05-08 09:20 | 18.05323 | 99.47257 | 4520 ft | 235 kts | 38° |
| 2026-05-08 09:20 | 18.06624 | 99.48286 | 4211 ft | 230 kts | 38° |
| 2026-05-08 09:21 | 18.07886 | 99.49284 | 3950 ft | 223 kts | 38° |
| 2026-05-08 09:21 | 18.09101 | 99.50243 | 3707 ft | 216 kts | 39° |
| 2026-05-08 09:22 | 18.16243 | 99.51386 | 3071 ft | 175 kts | 357° |
| 2026-05-08 09:23 | 18.17497 | 99.51269 | 2834 ft | 185 kts | 355° |
| 2026-05-08 09:23 | 18.18796 | 99.51112 | 2389 ft | 190 kts | 355° |
| 2026-05-08 09:23 | 18.20102 | 99.50990 | 2015 ft | 185 kts | 357° |
| 2026-05-08 09:23 | 18.21358 | 99.50890 | 1734 ft | 174 kts | 357° |
| 2026-05-08 09:24 | 18.22528 | 99.50794 | 1480 ft | 163 kts | 357° |
| 2026-05-08 09:24 | 18.23637 | 99.50711 | 1369 ft | 154 kts | 358° |
| 2026-05-08 09:24 | 18.24682 | 99.50626 | 1136 ft | 147 kts | 357° |
| 2026-05-08 09:24 | 18.25695 | 99.50539 | 947 ft | 145 kts | 358° |
| 2026-05-08 09:25 | 18.26689 | 99.50453 | 821 ft | 139 kts | 357° |
| 2026-05-08 09:25 | 18.27470 | 99.50388 | 808 ft | 62 kts | 356° |
| 2026-05-08 09:25 | 18.27712 | 99.50365 | 807 ft | 18 kts | 355° |
| 2026-05-08 09:25 | 18.27820 | 99.50357 | 807 ft | 9 kts | 11° |
| 2026-05-08 09:26 | 18.27838 | 99.50423 | 807 ft | 11 kts | 87° |
| 2026-05-08 09:26 | 18.27803 | 99.50450 | 807 ft | 8 kts | 174° |
| 2026-05-08 09:26 | 18.27759 | 99.50457 | 807 ft | 2 kts | 143° |
| 2026-05-08 09:26 | 18.27763 | 99.50487 | 807 ft | 6 kts | 84° |
| 2026-05-08 09:27 | 18.27764 | 99.50497 | 807 ft | 0 kts | 86° |